Terminal Aerodrome Forecast
Issued by NWS

Home | Current Version | Previous Version | Text Only | Print | Product List | Glossary On
Versions: 1 2 3 4 5 6 7 8 9 10 11 12 13 14
947
FTUS41 KCLE 241735
TAFFDY
TAF
KFDY 241735Z 2418/2518 21018G30KT P6SM SCT110
     FM250000 21010G20KT P6SM SCT060
     FM250500 23008KT P6SM BKN060
     FM251400 VRB04KT P6SM BKN035=

USA.gov is the U.S. government's official web portal to all federal, state and local government web resources and services.